This is the latest recevied weather packets stored in our database for station/object F4FTJ-13. If no packets are shown the sender has not sent any weather packets the latest 10 day(s).
| Time | Temp. | Humidity | Pressure | Rain* | Wind** | Luminosity | Snow |
|---|---|---|---|---|---|---|---|
| 1777672229 | 13.89° C | 99% | 1020.1 hPa | 0 mm | - | - | - |
| 1777669230 | 13.89° C | 99% | 1020.4 hPa | 0 mm | - | - | - |
| 1777666229 | 14.44° C | 98% | 1020.6 hPa | 0 mm | - | - | - |
| 1777664729 | 15° C | 97% | 1020.4 hPa | 0 mm | - | - | - |
| 1777664429 | 15° C | 97% | 1020.3 hPa | 0 mm | - | - | - |
| 1777663829 | 15.56° C | 97% | 1020.2 hPa | 0 mm | - | - | - |
| 1777662329 | 16.11° C | 96% | 1020.4 hPa | 0 mm | - | - | - |
| 1777659930 | 16.67° C | 94% | 1020 hPa | 0 mm | - | - | - |
| 1777653329 | 22.22° C | 65% | 1019.4 hPa | 0 mm | - | - | - |
| 1777650929 | 23.33° C | 62% | 1019.2 hPa | 0 mm | - | - | - |
| 1777649729 | 24.44° C | 62% | 1019.2 hPa | 0 mm | - | - | - |
| 1777647630 | 22.22° C | 69% | 1019.7 hPa | 0 mm | - | - | - |
| 1777646129 | 21.67° C | 67% | 1020.1 hPa | 0 mm | - | - | - |
| 1777644330 | 23.33° C | 61% | 1020.1 hPa | 0 mm | - | - | - |
| 1777643430 | 22.78° C | 64% | 1020.1 hPa | 0 mm | - | - | - |
| 1777637729 | 22.78° C | 66% | 1020.7 hPa | 0 mm | - | - | - |
| 1777636530 | 22.78° C | 67% | 1020.8 hPa | 0 mm | - | - | - |
| 1777635929 | 22.22° C | 70% | 1020.7 hPa | 0 mm | - | - | - |
| 1777634730 | 23.33° C | 67% | 1021 hPa | 0 mm | - | - | - |
| 1777634429 | 23.33° C | 68% | 1021 hPa | 0 mm | - | - | - |
| 1777632629 | 23.33° C | 67% | 1021.5 hPa | 0 mm | - | - | - |
| 1777626308 | 21.11° C | 57% | 1012.4 hPa | 0 mm | - | - | - |
| 1777624508 | 21.11° C | 57% | 1012.4 hPa | 0 mm | - | - | - |
| 1777621809 | 21.11° C | 57% | 1012.4 hPa | 0 mm | - | - | - |
| 1777617608 | 21.11° C | 57% | 1012.4 hPa | 0 mm | - | - | - |
* Rain latest hour (hover to see other rain measurements)
** Current wind speed in m/s (hover to see current wind gust speed)